sensor_id;sensor_type;location;lat;lon;timestamp;temperature;humidity
23347;DHT22;36852;45.466;11.066;2023-09-19T00:00:46;23.80;99.90
23347;DHT22;36852;45.466;11.066;2023-09-19T00:03:15;23.80;99.90
23347;DHT22;36852;45.466;11.066;2023-09-19T00:05:44;23.80;99.90
23347;DHT22;36852;45.466;11.066;2023-09-19T00:08:13;23.80;99.90
23347;DHT22;36852;45.466;11.066;2023-09-19T00:10:42;23.80;99.90
23347;DHT22;36852;45.466;11.066;2023-09-19T00:13:11;23.80;99.90
23347;DHT22;36852;45.466;11.066;2023-09-19T00:15:47;23.80;99.90
23347;DHT22;36852;45.466;11.066;2023-09-19T00:18:19;23.80;99.90
23347;DHT22;36852;45.466;11.066;2023-09-19T00:20:52;23.80;99.90
23347;DHT22;36852;45.466;11.066;2023-09-19T00:23:33;23.80;99.90
23347;DHT22;36852;45.466;11.066;2023-09-19T00:26:01;23.80;99.90
23347;DHT22;36852;45.466;11.066;2023-09-19T00:28:29;23.80;99.90
23347;DHT22;36852;45.466;11.066;2023-09-19T00:31:03;23.70;99.90
23347;DHT22;36852;45.466;11.066;2023-09-19T00:33:33;23.70;99.90
23347;DHT22;36852;45.466;11.066;2023-09-19T00:36:02;23.70;99.90
23347;DHT22;36852;45.466;11.066;2023-09-19T00:38:33;23.70;99.90
23347;DHT22;36852;45.466;11.066;2023-09-19T00:41:01;23.70;99.90
23347;DHT22;36852;45.466;11.066;2023-09-19T00:43:28;23.70;99.90
23347;DHT22;36852;45.466;11.066;2023-09-19T00:46:00;23.70;99.90
23347;DHT22;36852;45.466;11.066;2023-09-19T00:48:39;23.70;99.90
23347;DHT22;36852;45.466;11.066;2023-09-19T00:51:10;23.70;99.90
23347;DHT22;36852;45.466;11.066;2023-09-19T00:53:38;23.60;99.90
23347;DHT22;36852;45.466;11.066;2023-09-19T00:56:07;23.60;99.90
23347;DHT22;36852;45.466;11.066;2023-09-19T00:58:36;23.60;99.90
23347;DHT22;36852;45.466;11.066;2023-09-19T01:01:04;23.60;99.90
23347;DHT22;36852;45.466;11.066;2023-09-19T01:03:36;23.60;99.90
23347;DHT22;36852;45.466;11.066;2023-09-19T01:06:05;23.60;99.90
23347;DHT22;36852;45.466;11.066;2023-09-19T01:08:38;23.60;99.90
23347;DHT22;36852;45.466;11.066;2023-09-19T01:13:52;23.50;99.90
23347;DHT22;36852;45.466;11.066;2023-09-19T01:29:45;23.30;99.90
23347;DHT22;36852;45.466;11.066;2023-09-19T01:32:16;23.30;99.90
23347;DHT22;36852;45.466;11.066;2023-09-19T01:34:49;23.30;99.90
23347;DHT22;36852;45.466;11.066;2023-09-19T01:37:18;23.20;99.90
23347;DHT22;36852;45.466;11.066;2023-09-19T01:40:03;23.20;99.90
23347;DHT22;36852;45.466;11.066;2023-09-19T01:42:50;23.20;99.90
23347;DHT22;36852;45.466;11.066;2023-09-19T01:51:06;23.20;99.90
23347;DHT22;36852;45.466;11.066;2023-09-19T01:53:55;23.10;99.90
23347;DHT22;36852;45.466;11.066;2023-09-19T01:59:13;23.10;99.90
23347;DHT22;36852;45.466;11.066;2023-09-19T02:01:37;23.10;99.90
23347;DHT22;36852;45.466;11.066;2023-09-19T02:04:05;23.10;99.90
23347;DHT22;36852;45.466;11.066;2023-09-19T02:06:41;23.10;99.90
23347;DHT22;36852;45.466;11.066;2023-09-19T02:09:09;23.10;99.90
23347;DHT22;36852;45.466;11.066;2023-09-19T02:11:37;23.10;99.90
23347;DHT22;36852;45.466;11.066;2023-09-19T02:14:05;23.10;99.90
23347;DHT22;36852;45.466;11.066;2023-09-19T02:16:36;23.00;99.90
23347;DHT22;36852;45.466;11.066;2023-09-19T02:19:07;23.10;99.90
23347;DHT22;36852;45.466;11.066;2023-09-19T02:21:39;23.00;99.90
23347;DHT22;36852;45.466;11.066;2023-09-19T02:24:08;23.00;99.90
23347;DHT22;36852;45.466;11.066;2023-09-19T02:26:36;23.00;99.90
23347;DHT22;36852;45.466;11.066;2023-09-19T02:29:05;23.00;99.90
23347;DHT22;36852;45.466;11.066;2023-09-19T02:31:35;23.00;99.90
23347;DHT22;36852;45.466;11.066;2023-09-19T02:34:04;22.90;99.90
23347;DHT22;36852;45.466;11.066;2023-09-19T02:36:33;22.90;99.90
23347;DHT22;36852;45.466;11.066;2023-09-19T02:39:01;22.90;99.90
23347;DHT22;36852;45.466;11.066;2023-09-19T02:41:29;22.90;99.90
23347;DHT22;36852;45.466;11.066;2023-09-19T02:43:58;22.90;99.90
23347;DHT22;36852;45.466;11.066;2023-09-19T02:46:27;22.90;99.90
23347;DHT22;36852;45.466;11.066;2023-09-19T02:48:56;22.90;99.90
23347;DHT22;36852;45.466;11.066;2023-09-19T02:51:24;22.90;99.90
23347;DHT22;36852;45.466;11.066;2023-09-19T02:53:52;22.80;99.90
23347;DHT22;36852;45.466;11.066;2023-09-19T02:56:21;22.80;99.90
23347;DHT22;36852;45.466;11.066;2023-09-19T02:58:50;22.80;99.90
23347;DHT22;36852;45.466;11.066;2023-09-19T03:01:19;22.80;99.90
23347;DHT22;36852;45.466;11.066;2023-09-19T03:03:48;22.70;99.90
23347;DHT22;36852;45.466;11.066;2023-09-19T03:06:16;22.70;99.90
23347;DHT22;36852;45.466;11.066;2023-09-19T03:08:46;22.70;99.90
23347;DHT22;36852;45.466;11.066;2023-09-19T03:11:14;22.70;99.90
23347;DHT22;36852;45.466;11.066;2023-09-19T03:13:45;22.70;99.90
23347;DHT22;36852;45.466;11.066;2023-09-19T03:16:15;22.70;99.90
23347;DHT22;36852;45.466;11.066;2023-09-19T03:18:44;22.70;99.90
23347;DHT22;36852;45.466;11.066;2023-09-19T03:21:13;22.70;99.90
23347;DHT22;36852;45.466;11.066;2023-09-19T03:23:42;22.70;99.90
23347;DHT22;36852;45.466;11.066;2023-09-19T03:26:12;22.70;99.90
23347;DHT22;36852;45.466;11.066;2023-09-19T03:28:42;22.70;99.90
23347;DHT22;36852;45.466;11.066;2023-09-19T03:31:11;22.70;99.90
23347;DHT22;36852;45.466;11.066;2023-09-19T03:33:39;22.70;99.90
23347;DHT22;36852;45.466;11.066;2023-09-19T03:36:08;22.70;99.90
23347;DHT22;36852;45.466;11.066;2023-09-19T03:38:35;22.70;99.90
23347;DHT22;36852;45.466;11.066;2023-09-19T03:41:03;22.70;99.90
23347;DHT22;36852;45.466;11.066;2023-09-19T03:43:39;22.70;99.90
23347;DHT22;36852;45.466;11.066;2023-09-19T03:46:08;22.70;99.90
23347;DHT22;36852;45.466;11.066;2023-09-19T03:48:39;22.70;99.90
23347;DHT22;36852;45.466;11.066;2023-09-19T03:51:08;22.70;99.90
23347;DHT22;36852;45.466;11.066;2023-09-19T03:53:36;22.70;99.90
23347;DHT22;36852;45.466;11.066;2023-09-19T03:56:04;22.70;99.90
23347;DHT22;36852;45.466;11.066;2023-09-19T03:58:32;22.60;99.90
23347;DHT22;36852;45.466;11.066;2023-09-19T04:01:02;22.60;99.90
23347;DHT22;36852;45.466;11.066;2023-09-19T04:03:29;22.60;99.90
23347;DHT22;36852;45.466;11.066;2023-09-19T04:06:00;22.60;99.90
23347;DHT22;36852;45.466;11.066;2023-09-19T04:08:28;22.60;99.90
23347;DHT22;36852;45.466;11.066;2023-09-19T04:10:56;22.50;99.90
23347;DHT22;36852;45.466;11.066;2023-09-19T04:13:25;22.50;99.90
23347;DHT22;36852;45.466;11.066;2023-09-19T04:15:53;22.50;99.90
23347;DHT22;36852;45.466;11.066;2023-09-19T04:18:23;22.50;99.90
23347;DHT22;36852;45.466;11.066;2023-09-19T04:20:52;22.40;99.90
23347;DHT22;36852;45.466;11.066;2023-09-19T04:23:22;22.50;99.90
23347;DHT22;36852;45.466;11.066;2023-09-19T04:25:49;22.40;99.90
23347;DHT22;36852;45.466;11.066;2023-09-19T04:28:17;22.40;99.90
23347;DHT22;36852;45.466;11.066;2023-09-19T04:30:45;22.40;99.90
23347;DHT22;36852;45.466;11.066;2023-09-19T04:33:14;22.40;99.90
23347;DHT22;36852;45.466;11.066;2023-09-19T04:35:51;22.40;99.90
23347;DHT22;36852;45.466;11.066;2023-09-19T04:38:19;22.40;99.90
23347;DHT22;36852;45.466;11.066;2023-09-19T04:40:48;22.30;99.90
23347;DHT22;36852;45.466;11.066;2023-09-19T04:43:16;22.40;99.90
23347;DHT22;36852;45.466;11.066;2023-09-19T04:45:44;22.40;99.90
23347;DHT22;36852;45.466;11.066;2023-09-19T04:48:12;22.40;99.90
23347;DHT22;36852;45.466;11.066;2023-09-19T04:50:42;22.40;99.90
23347;DHT22;36852;45.466;11.066;2023-09-19T04:53:10;22.40;99.90
23347;DHT22;36852;45.466;11.066;2023-09-19T04:55:39;22.40;99.90
23347;DHT22;36852;45.466;11.066;2023-09-19T04:58:10;22.40;99.90
23347;DHT22;36852;45.466;11.066;2023-09-19T05:00:38;22.40;99.90
23347;DHT22;36852;45.466;11.066;2023-09-19T05:03:06;22.40;99.90
23347;DHT22;36852;45.466;11.066;2023-09-19T05:05:35;22.50;99.90
23347;DHT22;36852;45.466;11.066;2023-09-19T05:08:05;22.50;99.90
23347;DHT22;36852;45.466;11.066;2023-09-19T05:10:34;22.50;99.90
23347;DHT22;36852;45.466;11.066;2023-09-19T05:13:04;22.50;99.90
23347;DHT22;36852;45.466;11.066;2023-09-19T05:15:34;22.40;99.90
23347;DHT22;36852;45.466;11.066;2023-09-19T05:18:06;22.40;99.90
23347;DHT22;36852;45.466;11.066;2023-09-19T05:20:34;22.40;99.90
23347;DHT22;36852;45.466;11.066;2023-09-19T05:23:06;22.40;99.90
23347;DHT22;36852;45.466;11.066;2023-09-19T05:25:39;22.40;99.90
23347;DHT22;36852;45.466;11.066;2023-09-19T05:28:09;22.40;99.90
23347;DHT22;36852;45.466;11.066;2023-09-19T05:30:39;22.40;99.90
23347;DHT22;36852;45.466;11.066;2023-09-19T05:33:12;22.40;99.90
23347;DHT22;36852;45.466;11.066;2023-09-19T05:35:43;22.40;99.90
23347;DHT22;36852;45.466;11.066;2023-09-19T05:38:13;22.40;99.90
23347;DHT22;36852;45.466;11.066;2023-09-19T05:40:41;22.40;99.90
23347;DHT22;36852;45.466;11.066;2023-09-19T05:43:10;22.50;99.90
23347;DHT22;36852;45.466;11.066;2023-09-19T05:45:38;22.50;99.90
23347;DHT22;36852;45.466;11.066;2023-09-19T05:48:10;22.50;99.90
23347;DHT22;36852;45.466;11.066;2023-09-19T05:50:39;22.50;99.90
23347;DHT22;36852;45.466;11.066;2023-09-19T05:53:07;22.50;99.90
23347;DHT22;36852;45.466;11.066;2023-09-19T05:55:35;22.50;99.90
23347;DHT22;36852;45.466;11.066;2023-09-19T05:58:03;22.50;99.90
23347;DHT22;36852;45.466;11.066;2023-09-19T06:00:31;22.60;99.90
23347;DHT22;36852;45.466;11.066;2023-09-19T06:03:00;22.60;99.90
23347;DHT22;36852;45.466;11.066;2023-09-19T06:05:28;22.70;99.90
23347;DHT22;36852;45.466;11.066;2023-09-19T06:07:59;22.60;99.90
23347;DHT22;36852;45.466;11.066;2023-09-19T06:10:31;22.70;99.90
23347;DHT22;36852;45.466;11.066;2023-09-19T06:13:00;22.60;99.90
23347;DHT22;36852;45.466;11.066;2023-09-19T06:15:31;22.50;99.90
23347;DHT22;36852;45.466;11.066;2023-09-19T06:18:01;22.50;99.90
23347;DHT22;36852;45.466;11.066;2023-09-19T06:20:31;22.50;99.90
23347;DHT22;36852;45.466;11.066;2023-09-19T06:23:02;22.50;99.90
23347;DHT22;36852;45.466;11.066;2023-09-19T06:25:33;22.60;99.90
23347;DHT22;36852;45.466;11.066;2023-09-19T06:28:02;22.60;99.90
23347;DHT22;36852;45.466;11.066;2023-09-19T06:30:31;22.70;99.90
23347;DHT22;36852;45.466;11.066;2023-09-19T06:33:00;22.70;99.90
23347;DHT22;36852;45.466;11.066;2023-09-19T06:35:31;22.80;99.90
23347;DHT22;36852;45.466;11.066;2023-09-19T06:38:04;22.80;99.90
23347;DHT22;36852;45.466;11.066;2023-09-19T06:40:34;22.80;99.90
23347;DHT22;36852;45.466;11.066;2023-09-19T06:43:02;22.90;99.90
23347;DHT22;36852;45.466;11.066;2023-09-19T06:45:31;22.90;99.90
23347;DHT22;36852;45.466;11.066;2023-09-19T06:47:59;23.00;99.90
23347;DHT22;36852;45.466;11.066;2023-09-19T06:50:27;23.00;99.90
23347;DHT22;36852;45.466;11.066;2023-09-19T06:52:56;23.10;99.90
23347;DHT22;36852;45.466;11.066;2023-09-19T06:55:25;23.10;99.90
23347;DHT22;36852;45.466;11.066;2023-09-19T06:57:56;23.10;99.90
23347;DHT22;36852;45.466;11.066;2023-09-19T07:00:24;23.20;99.90
23347;DHT22;36852;45.466;11.066;2023-09-19T07:03:02;23.20;99.90
23347;DHT22;36852;45.466;11.066;2023-09-19T07:05:33;23.20;99.90
23347;DHT22;36852;45.466;11.066;2023-09-19T07:08:05;23.20;99.90
23347;DHT22;36852;45.466;11.066;2023-09-19T07:10:34;23.30;99.90
23347;DHT22;36852;45.466;11.066;2023-09-19T07:13:04;23.40;99.90
23347;DHT22;36852;45.466;11.066;2023-09-19T07:15:34;23.40;99.90
23347;DHT22;36852;45.466;11.066;2023-09-19T07:18:10;23.40;99.90
23347;DHT22;36852;45.466;11.066;2023-09-19T07:20:39;23.50;99.90
23347;DHT22;36852;45.466;11.066;2023-09-19T07:23:08;23.60;99.90
23347;DHT22;36852;45.466;11.066;2023-09-19T07:25:36;23.60;99.90
23347;DHT22;36852;45.466;11.066;2023-09-19T07:28:05;23.70;99.90
23347;DHT22;36852;45.466;11.066;2023-09-19T07:30:36;23.70;99.90
23347;DHT22;36852;45.466;11.066;2023-09-19T07:33:05;23.80;99.90
23347;DHT22;36852;45.466;11.066;2023-09-19T07:35:34;23.90;99.90
23347;DHT22;36852;45.466;11.066;2023-09-19T07:38:02;23.90;99.90
23347;DHT22;36852;45.466;11.066;2023-09-19T07:40:36;24.00;99.90
23347;DHT22;36852;45.466;11.066;2023-09-19T07:43:04;24.00;99.90
23347;DHT22;36852;45.466;11.066;2023-09-19T07:45:32;24.10;99.90
23347;DHT22;36852;45.466;11.066;2023-09-19T07:48:01;24.10;99.90
23347;DHT22;36852;45.466;11.066;2023-09-19T07:50:34;24.10;99.90
23347;DHT22;36852;45.466;11.066;2023-09-19T07:53:06;24.20;99.90
23347;DHT22;36852;45.466;11.066;2023-09-19T07:55:33;24.20;99.90
23347;DHT22;36852;45.466;11.066;2023-09-19T07:58:02;24.20;99.90
23347;DHT22;36852;45.466;11.066;2023-09-19T08:00:32;24.20;99.90
23347;DHT22;36852;45.466;11.066;2023-09-19T08:03:04;24.30;99.90
23347;DHT22;36852;45.466;11.066;2023-09-19T08:05:36;24.30;99.90
23347;DHT22;36852;45.466;11.066;2023-09-19T08:08:04;24.40;99.90
23347;DHT22;36852;45.466;11.066;2023-09-19T08:10:34;24.40;99.90
23347;DHT22;36852;45.466;11.066;2023-09-19T08:13:03;24.40;99.90
23347;DHT22;36852;45.466;11.066;2023-09-19T08:15:32;24.50;99.90
23347;DHT22;36852;45.466;11.066;2023-09-19T08:18:02;24.50;99.90
23347;DHT22;36852;45.466;11.066;2023-09-19T08:20:30;24.60;99.90
23347;DHT22;36852;45.466;11.066;2023-09-19T08:22:58;24.60;99.90
23347;DHT22;36852;45.466;11.066;2023-09-19T08:25:27;24.70;99.90
23347;DHT22;36852;45.466;11.066;2023-09-19T08:27:56;24.80;99.90
23347;DHT22;36852;45.466;11.066;2023-09-19T08:30:25;24.80;99.90
23347;DHT22;36852;45.466;11.066;2023-09-19T08:33:00;24.90;99.90
23347;DHT22;36852;45.466;11.066;2023-09-19T08:35:29;24.90;99.90
23347;DHT22;36852;45.466;11.066;2023-09-19T08:37:58;25.00;99.90
23347;DHT22;36852;45.466;11.066;2023-09-19T08:40:27;25.10;99.90
23347;DHT22;36852;45.466;11.066;2023-09-19T08:43:02;25.20;99.90
23347;DHT22;36852;45.466;11.066;2023-09-19T08:45:33;25.20;99.90
23347;DHT22;36852;45.466;11.066;2023-09-19T08:48:25;25.20;99.90
23347;DHT22;36852;45.466;11.066;2023-09-19T08:51:06;25.30;99.90
23347;DHT22;36852;45.466;11.066;2023-09-19T08:53:51;25.40;99.90
23347;DHT22;36852;45.466;11.066;2023-09-19T08:56:22;25.50;99.90
23347;DHT22;36852;45.466;11.066;2023-09-19T08:58:59;25.50;99.90
23347;DHT22;36852;45.466;11.066;2023-09-19T09:01:31;25.50;99.90
23347;DHT22;36852;45.466;11.066;2023-09-19T09:04:01;25.50;99.90
23347;DHT22;36852;45.466;11.066;2023-09-19T09:06:29;25.60;99.90
23347;DHT22;36852;45.466;11.066;2023-09-19T09:09:00;25.60;99.90
23347;DHT22;36852;45.466;11.066;2023-09-19T09:11:29;25.60;99.90
23347;DHT22;36852;45.466;11.066;2023-09-19T09:13:57;25.70;99.90
23347;DHT22;36852;45.466;11.066;2023-09-19T09:16:25;25.60;99.90
23347;DHT22;36852;45.466;11.066;2023-09-19T09:18:54;25.60;99.90
23347;DHT22;36852;45.466;11.066;2023-09-19T09:21:25;25.60;99.90
23347;DHT22;36852;45.466;11.066;2023-09-19T09:23:54;25.60;99.90
23347;DHT22;36852;45.466;11.066;2023-09-19T09:26:42;25.60;99.90
23347;DHT22;36852;45.466;11.066;2023-09-19T09:29:15;25.60;99.90
23347;DHT22;36852;45.466;11.066;2023-09-19T09:31:45;25.60;99.90
23347;DHT22;36852;45.466;11.066;2023-09-19T09:34:13;25.60;99.90
23347;DHT22;36852;45.466;11.066;2023-09-19T09:36:41;25.60;99.90
23347;DHT22;36852;45.466;11.066;2023-09-19T09:39:09;25.60;99.90
23347;DHT22;36852;45.466;11.066;2023-09-19T09:41:48;25.70;99.90
23347;DHT22;36852;45.466;11.066;2023-09-19T09:44:19;25.70;99.90
23347;DHT22;36852;45.466;11.066;2023-09-19T09:46:48;25.70;99.90
23347;DHT22;36852;45.466;11.066;2023-09-19T09:49:25;25.60;99.90
23347;DHT22;36852;45.466;11.066;2023-09-19T09:54:37;25.70;99.90
23347;DHT22;36852;45.466;11.066;2023-09-19T09:57:10;25.80;99.90
23347;DHT22;36852;45.466;11.066;2023-09-19T09:59:55;25.70;99.90
23347;DHT22;36852;45.466;11.066;2023-09-19T10:02:27;25.70;99.90
23347;DHT22;36852;45.466;11.066;2023-09-19T10:05:00;25.80;99.90
23347;DHT22;36852;45.466;11.066;2023-09-19T10:07:34;25.90;99.90
23347;DHT22;36852;45.466;11.066;2023-09-19T10:10:09;25.90;99.90
23347;DHT22;36852;45.466;11.066;2023-09-19T10:12:43;26.00;99.90
23347;DHT22;36852;45.466;11.066;2023-09-19T10:15:17;26.00;99.90
23347;DHT22;36852;45.466;11.066;2023-09-19T10:17:45;26.10;99.90
23347;DHT22;36852;45.466;11.066;2023-09-19T10:20:15;26.10;99.90
23347;DHT22;36852;45.466;11.066;2023-09-19T10:22:50;26.10;99.90
23347;DHT22;36852;45.466;11.066;2023-09-19T10:25:26;26.10;99.90
23347;DHT22;36852;45.466;11.066;2023-09-19T10:28:00;26.20;99.90
23347;DHT22;36852;45.466;11.066;2023-09-19T10:30:32;26.30;99.90
23347;DHT22;36852;45.466;11.066;2023-09-19T10:33:04;26.30;99.90
23347;DHT22;36852;45.466;11.066;2023-09-19T10:35:33;26.40;99.90
23347;DHT22;36852;45.466;11.066;2023-09-19T10:38:05;26.50;99.90
23347;DHT22;36852;45.466;11.066;2023-09-19T10:40:34;26.50;99.90
23347;DHT22;36852;45.466;11.066;2023-09-19T10:43:04;26.60;99.90
23347;DHT22;36852;45.466;11.066;2023-09-19T10:45:35;26.60;99.90
23347;DHT22;36852;45.466;11.066;2023-09-19T10:48:03;26.70;99.90
23347;DHT22;36852;45.466;11.066;2023-09-19T10:50:44;26.60;99.90
23347;DHT22;36852;45.466;11.066;2023-09-19T10:53:14;26.70;99.90
23347;DHT22;36852;45.466;11.066;2023-09-19T10:55:56;26.70;99.90
23347;DHT22;36852;45.466;11.066;2023-09-19T10:58:28;26.70;99.90
23347;DHT22;36852;45.466;11.066;2023-09-19T11:00:58;26.70;99.90
23347;DHT22;36852;45.466;11.066;2023-09-19T11:03:44;26.80;99.90
23347;DHT22;36852;45.466;11.066;2023-09-19T11:06:14;26.80;99.90
23347;DHT22;36852;45.466;11.066;2023-09-19T11:08:57;26.90;99.90
23347;DHT22;36852;45.466;11.066;2023-09-19T11:30:51;27.20;99.90
23347;DHT22;36852;45.466;11.066;2023-09-19T11:33:29;27.20;99.90
23347;DHT22;36852;45.466;11.066;2023-09-19T11:36:12;27.30;99.90
23347;DHT22;36852;45.466;11.066;2023-09-19T11:46:34;27.50;99.90
23347;DHT22;36852;45.466;11.066;2023-09-19T11:49:07;27.50;99.90
23347;DHT22;36852;45.466;11.066;2023-09-19T11:51:41;27.60;99.90
23347;DHT22;36852;45.466;11.066;2023-09-19T11:54:14;27.60;99.90
23347;DHT22;36852;45.466;11.066;2023-09-19T11:56:45;27.60;99.90
23347;DHT22;36852;45.466;11.066;2023-09-19T11:59:20;27.60;99.90
23347;DHT22;36852;45.466;11.066;2023-09-19T12:01:54;27.60;99.90
23347;DHT22;36852;45.466;11.066;2023-09-19T12:07:09;27.60;99.90
23347;DHT22;36852;45.466;11.066;2023-09-19T12:09:47;27.60;99.90
23347;DHT22;36852;45.466;11.066;2023-09-19T12:12:25;27.70;99.90
23347;DHT22;36852;45.466;11.066;2023-09-19T12:14:57;27.70;99.90
23347;DHT22;36852;45.466;11.066;2023-09-19T12:17:40;27.80;99.90
23347;DHT22;36852;45.466;11.066;2023-09-19T12:20:10;27.90;99.90
23347;DHT22;36852;45.466;11.066;2023-09-19T12:22:41;27.70;99.90
23347;DHT22;36852;45.466;11.066;2023-09-19T12:25:13;27.80;99.90
23347;DHT22;36852;45.466;11.066;2023-09-19T12:27:48;27.90;99.90
23347;DHT22;36852;45.466;11.066;2023-09-19T12:30:27;28.00;99.90
23347;DHT22;36852;45.466;11.066;2023-09-19T12:32:56;28.10;99.90
23347;DHT22;36852;45.466;11.066;2023-09-19T12:35:31;28.20;99.90
23347;DHT22;36852;45.466;11.066;2023-09-19T12:38:01;28.40;99.90
23347;DHT22;36852;45.466;11.066;2023-09-19T12:40:34;28.40;99.90
23347;DHT22;36852;45.466;11.066;2023-09-19T12:43:05;28.60;99.90
23347;DHT22;36852;45.466;11.066;2023-09-19T12:45:34;28.80;99.90
23347;DHT22;36852;45.466;11.066;2023-09-19T12:48:24;28.90;99.30
23347;DHT22;36852;45.466;11.066;2023-09-19T12:51:06;29.00;98.90
23347;DHT22;36852;45.466;11.066;2023-09-19T12:53:39;29.10;99.10
23347;DHT22;36852;45.466;11.066;2023-09-19T12:56:14;29.30;99.20
23347;DHT22;36852;45.466;11.066;2023-09-19T12:58:58;29.50;99.40
23347;DHT22;36852;45.466;11.066;2023-09-19T13:01:24;29.60;97.60
23347;DHT22;36852;45.466;11.066;2023-09-19T13:06:50;29.90;98.00
23347;DHT22;36852;45.466;11.066;2023-09-19T13:09:20;30.10;96.10
23347;DHT22;36852;45.466;11.066;2023-09-19T13:11:49;30.20;93.90
23347;DHT22;36852;45.466;11.066;2023-09-19T13:17:15;30.20;93.40
23347;DHT22;36852;45.466;11.066;2023-09-19T13:19:51;30.10;92.70
23347;DHT22;36852;45.466;11.066;2023-09-19T13:22:41;30.10;93.80
23347;DHT22;36852;45.466;11.066;2023-09-19T13:25:15;30.40;93.90
23347;DHT22;36852;45.466;11.066;2023-09-19T13:28:09;30.50;93.80
23347;DHT22;36852;45.466;11.066;2023-09-19T13:30:37;30.80;94.30
23347;DHT22;36852;45.466;11.066;2023-09-19T13:33:11;31.00;94.20
23347;DHT22;36852;45.466;11.066;2023-09-19T13:35:39;31.20;91.60
23347;DHT22;36852;45.466;11.066;2023-09-19T13:38:11;31.20;90.70
23347;DHT22;36852;45.466;11.066;2023-09-19T13:40:39;31.30;91.30
23347;DHT22;36852;45.466;11.066;2023-09-19T13:43:09;31.40;91.70
23347;DHT22;36852;45.466;11.066;2023-09-19T13:45:39;31.60;90.90
23347;DHT22;36852;45.466;11.066;2023-09-19T13:48:09;31.60;91.10
23347;DHT22;36852;45.466;11.066;2023-09-19T13:50:40;31.80;90.40
23347;DHT22;36852;45.466;11.066;2023-09-19T13:53:10;32.00;90.20
23347;DHT22;36852;45.466;11.066;2023-09-19T13:55:40;32.20;90.30
23347;DHT22;36852;45.466;11.066;2023-09-19T13:58:08;32.40;89.90
23347;DHT22;36852;45.466;11.066;2023-09-19T14:00:39;32.60;88.70
23347;DHT22;36852;45.466;11.066;2023-09-19T14:03:07;32.70;85.60
23347;DHT22;36852;45.466;11.066;2023-09-19T14:05:35;32.80;88.60
23347;DHT22;36852;45.466;11.066;2023-09-19T14:08:04;33.00;85.90
23347;DHT22;36852;45.466;11.066;2023-09-19T14:10:32;33.10;81.60
23347;DHT22;36852;45.466;11.066;2023-09-19T14:13:00;33.20;80.50
23347;DHT22;36852;45.466;11.066;2023-09-19T14:15:29;33.20;79.70
23347;DHT22;36852;45.466;11.066;2023-09-19T14:17:58;33.30;81.40
23347;DHT22;36852;45.466;11.066;2023-09-19T14:20:27;33.40;81.40
23347;DHT22;36852;45.466;11.066;2023-09-19T14:22:55;33.40;78.20
23347;DHT22;36852;45.466;11.066;2023-09-19T14:25:26;33.50;79.80
23347;DHT22;36852;45.466;11.066;2023-09-19T14:27:54;33.50;78.60
23347;DHT22;36852;45.466;11.066;2023-09-19T14:30:22;33.50;77.90
23347;DHT22;36852;45.466;11.066;2023-09-19T14:32:50;33.40;76.80
23347;DHT22;36852;45.466;11.066;2023-09-19T14:35:19;33.30;77.20
23347;DHT22;36852;45.466;11.066;2023-09-19T14:37:46;33.30;78.60
23347;DHT22;36852;45.466;11.066;2023-09-19T14:40:15;33.20;79.20
23347;DHT22;36852;45.466;11.066;2023-09-19T14:42:44;33.10;79.50
23347;DHT22;36852;45.466;11.066;2023-09-19T14:45:12;33.10;78.60
23347;DHT22;36852;45.466;11.066;2023-09-19T14:47:46;33.00;78.90
23347;DHT22;36852;45.466;11.066;2023-09-19T14:50:14;33.00;80.00
23347;DHT22;36852;45.466;11.066;2023-09-19T14:52:43;33.00;79.10
23347;DHT22;36852;45.466;11.066;2023-09-19T14:55:11;33.00;80.70
23347;DHT22;36852;45.466;11.066;2023-09-19T14:57:42;32.90;79.50
23347;DHT22;36852;45.466;11.066;2023-09-19T15:00:14;32.90;77.30
23347;DHT22;36852;45.466;11.066;2023-09-19T15:02:43;32.80;77.00
23347;DHT22;36852;45.466;11.066;2023-09-19T15:05:13;32.70;77.60
23347;DHT22;36852;45.466;11.066;2023-09-19T15:07:44;32.70;77.80
23347;DHT22;36852;45.466;11.066;2023-09-19T15:10:12;32.70;77.00
23347;DHT22;36852;45.466;11.066;2023-09-19T15:12:44;32.60;75.60
23347;DHT22;36852;45.466;11.066;2023-09-19T15:15:13;32.70;74.80
23347;DHT22;36852;45.466;11.066;2023-09-19T15:17:41;32.70;75.10
23347;DHT22;36852;45.466;11.066;2023-09-19T15:20:10;32.70;73.30
23347;DHT22;36852;45.466;11.066;2023-09-19T15:22:41;32.70;75.30
23347;DHT22;36852;45.466;11.066;2023-09-19T15:25:12;32.80;74.90
23347;DHT22;36852;45.466;11.066;2023-09-19T15:27:41;32.80;75.10
23347;DHT22;36852;45.466;11.066;2023-09-19T15:30:09;32.80;73.10
23347;DHT22;36852;45.466;11.066;2023-09-19T15:32:38;32.80;72.40
23347;DHT22;36852;45.466;11.066;2023-09-19T15:35:06;32.80;71.90
23347;DHT22;36852;45.466;11.066;2023-09-19T15:37:36;32.90;73.20
23347;DHT22;36852;45.466;11.066;2023-09-19T15:40:04;32.90;71.10
23347;DHT22;36852;45.466;11.066;2023-09-19T15:42:34;32.90;70.10
23347;DHT22;36852;45.466;11.066;2023-09-19T15:45:03;32.80;69.10
23347;DHT22;36852;45.466;11.066;2023-09-19T15:47:32;32.80;68.90
23347;DHT22;36852;45.466;11.066;2023-09-19T15:50:02;32.80;68.30
23347;DHT22;36852;45.466;11.066;2023-09-19T15:52:32;32.80;69.40
23347;DHT22;36852;45.466;11.066;2023-09-19T15:55:02;32.70;68.60
23347;DHT22;36852;45.466;11.066;2023-09-19T15:57:31;32.70;69.50
23347;DHT22;36852;45.466;11.066;2023-09-19T15:59:59;32.60;67.40
23347;DHT22;36852;45.466;11.066;2023-09-19T16:02:29;32.60;69.10
23347;DHT22;36852;45.466;11.066;2023-09-19T16:04:57;32.60;70.50
23347;DHT22;36852;45.466;11.066;2023-09-19T16:07:28;32.60;69.50
23347;DHT22;36852;45.466;11.066;2023-09-19T16:09:56;32.60;69.70
23347;DHT22;36852;45.466;11.066;2023-09-19T16:12:28;32.60;69.30
23347;DHT22;36852;45.466;11.066;2023-09-19T16:14:56;32.60;69.80
23347;DHT22;36852;45.466;11.066;2023-09-19T16:17:24;32.60;68.70
23347;DHT22;36852;45.466;11.066;2023-09-19T16:19:53;32.70;70.10
23347;DHT22;36852;45.466;11.066;2023-09-19T16:22:22;32.60;68.90
23347;DHT22;36852;45.466;11.066;2023-09-19T16:24:50;32.60;69.30
23347;DHT22;36852;45.466;11.066;2023-09-19T16:27:18;32.70;70.60
23347;DHT22;36852;45.466;11.066;2023-09-19T16:29:49;32.70;70.70
23347;DHT22;36852;45.466;11.066;2023-09-19T16:32:18;32.60;70.90
23347;DHT22;36852;45.466;11.066;2023-09-19T16:34:47;32.50;71.30
23347;DHT22;36852;45.466;11.066;2023-09-19T16:37:16;32.30;71.50
23347;DHT22;36852;45.466;11.066;2023-09-19T16:39:44;32.10;71.50